Terminal Aerodrome Forecast
Issued by NWS

Home | Current Version | Previous Version | Graphics & Text | Print | Product List | Glossary On
Versions: 1 2 3 4 5 6 7 8 9 10 11 12 13 14 15 16 17 18 19 20 21 22 23 24
660
FTUS43 KICT 261729
TAFRSL
TAF
KRSL 261729Z 2618/2718 09007KT P6SM SCT010 BKN018
      TEMPO 2618/2620 BKN008
     FM262100 14007KT P6SM SCT025 BKN035
     FM270600 09006KT P6SM VCTS SCT040CB BKN060
     FM271300 14008KT P6SM SCT020 BKN035=

USA.gov is the U.S. government's official web portal to all federal, state and local government web resources and services.